Terminal Aerodrome Forecast
Issued by NWS

Home | Current Version | Previous Version | Text Only | Print | Product List | Glossary On
Versions: 1 2 3 4 5 6 7 8 9 10 11 12 13 14
000
FTUS45 KFGZ 291730
TAFPRC
TAF
KPRC 291730Z 2918/3018 VRB06KT P6SM SCT100 BKN180
     FM291900 25007KT P6SM BKN100
      TEMPO 2920/2924 VRB10G20KT 5SM TSRA BKN080CB
     FM300230 20005KT P6SM BKN100 BKN250=

USA.gov is the U.S. government's official web portal to all federal, state and local government web resources and services.